KGTF/GTF METAR and TAF weather

Enter ICAO airport designator
Station Type Date Time Source
KGTF METAR 2020/09/28 06:53 UTC NOAA

KGTF 280653Z 21010KT 10SM CLR 05/M03 A3038 RMK AO2 SLP301 T00501033 401720017 $


Station Type Date Time Source
KGTF Decoded METAR 2020/09/28 06:53 UTC NOAA

GREAT FALLS INTERNATIONAL, MT, United States (KGTF) 47-28N 111-23W 1119M
Sep 28, 2020 - 02:53 AM EDT / 2020.09.28 0653 UTC
Wind: from the SSW (210 degrees) at 12 MPH (10 KT):0
Visibility: 10 mile(s):0
Sky conditions: clear
Temperature: 41.0 F (5.0 C)
Dew Point: 26.1 F (-3.3 C)
Relative Humidity: 54%
Pressure (altimeter): 30.38 in. Hg (1028 hPa)
ob: KGTF 280653Z 21010KT 10SM CLR 05/M03 A3038 RMK AO2 SLP301 T00501033 401720017
cycle: 7

Station Type Date Time Source
KGTF TAF 2020/09/28 06:22 UTC NOAA

TAF KGTF 280520Z 2806/2906 23009KT P6SM SKC
AMD NOT SKED 2806/2809

Example: see airport list